Gaziantep, Turkey

5:28 AM +03 on December 03, 2016 (GMT +0300)
City Center | | Change Station

Elev 2779 ft 37.07 °N, 37.37 °E | Updated 8 minutes ago

Clear
Clear
37.4 °F
Feels Like 37 °F
N
0.0
Wind Variable Wind from North
Gusts 0.0 mph

Today
High -- | Low -- °F
--% Chance of Precip.
Yesterday
High -- | Low -- °F
Precip. -- in
Pressure 30.04 in
Visibility -9999.0 miles
Clouds
Windchill 37 °F
Dew Point 37 °F
Humidity 99%
Rainfall 0.00 in
Snow Depth Not available.
7:27 AM 5:13 PM
Waxing Crescent, 12% visible
METAR LTAJ 030150Z VRB02KT CAVOK 01/M00 Q1017 NOSIG RMK RWY10 34003KT 300V010
Pressure 30.04 in
Visibility -9999.0 miles
Clouds
Windchill 37 °F
Dew Point 37 °F
Humidity 99%
Rainfall 0.00 in
Snow Depth Not available.
7:27 AM 5:13 PM
Waxing Crescent, 12% visible
METAR LTAJ 030150Z VRB02KT CAVOK 01/M00 Q1017 NOSIG RMK RWY10 34003KT 300V010

10-Day Weather Forecast

×

Almanac

Astronomy

Dec. 03, 2016 Rise Set
Actual Time
Civil Twilight
Nautical Twilight
Astronomical Twilight
Moon
Length of Visible Light
Length of Day
Tomorrow will be .
, % of the Moon is Illuminated

Today's Extremes

Country Highs Country Lows

Community

WunderPhotos

Upload Photos

1,955,396 photos uploaded!

WunderBlog® & News

Nearby

Air Quality

  Air Quality AQ Index Pollutant
Not available.

Snow Depth

Station Depth Elevation

Earthquake Activity

City Distance Mag. Time & Date
Minimum magnitude displayed is 2.5.

Coastal Water Temperatures

Place Temperature

Stations

Nearby Weather Stations

Station Location Temp. Windchill Dew Point Humidity Wind Precip. Elev Updated Type